createdAt,value
2023-03-19T00:00:26.720Z,14.61
2023-03-19T00:01:26.660Z,14.73
2023-03-19T00:02:26.677Z,14.63
2023-03-19T00:03:26.783Z,14.59
2023-03-19T00:04:26.531Z,14.56
2023-03-19T00:05:26.500Z,14.56
2023-03-19T00:06:26.443Z,14.66
2023-03-19T00:07:26.409Z,14.63
2023-03-19T00:08:26.359Z,14.62
2023-03-19T00:09:26.325Z,14.59
2023-03-19T00:10:26.271Z,14.52
2023-03-19T00:11:26.231Z,14.56
2023-03-19T00:12:26.189Z,14.61
2023-03-19T00:13:26.140Z,14.51
2023-03-19T00:14:26.094Z,14.61
2023-03-19T00:15:26.081Z,14.61
2023-03-19T00:16:26.047Z,14.71
2023-03-19T00:17:25.963Z,14.77
2023-03-19T00:18:25.920Z,14.74
2023-03-19T00:19:25.876Z,14.63
2023-03-19T00:20:25.835Z,14.58
2023-03-19T00:21:26.113Z,14.55
2023-03-19T00:22:25.757Z,14.58
2023-03-19T00:23:25.702Z,14.52
2023-03-19T00:24:25.650Z,14.51
2023-03-19T00:25:25.619Z,14.67
2023-03-19T00:26:25.570Z,14.63
2023-03-19T00:27:25.546Z,14.68
2023-03-19T00:28:25.506Z,14.74
2023-03-19T00:29:25.434Z,14.66
2023-03-19T00:30:25.423Z,14.56
2023-03-19T00:31:25.368Z,14.53
2023-03-19T00:32:25.303Z,14.55
2023-03-19T00:33:25.271Z,14.56
2023-03-19T00:34:25.226Z,14.59
2023-03-19T00:35:25.214Z,14.58
2023-03-19T00:36:25.125Z,14.55
2023-03-19T00:37:25.087Z,14.56
2023-03-19T00:38:25.047Z,14.62
2023-03-19T00:39:24.991Z,14.67
2023-03-19T00:40:24.950Z,14.63
2023-03-19T00:41:24.959Z,14.68
2023-03-19T00:42:24.862Z,14.67
2023-03-19T00:43:24.824Z,14.73
2023-03-19T00:44:24.787Z,14.62
2023-03-19T00:45:24.733Z,14.62
2023-03-19T00:46:24.775Z,14.58
2023-03-19T00:47:24.651Z,14.66
2023-03-19T00:48:24.601Z,14.62
2023-03-19T00:49:24.554Z,14.67
2023-03-19T00:50:24.637Z,14.67
2023-03-19T00:51:24.464Z,14.53
2023-03-19T00:52:24.422Z,14.51
2023-03-19T00:53:24.379Z,14.48
2023-03-19T00:54:24.336Z,14.53
2023-03-19T00:55:24.300Z,14.53
2023-03-19T00:56:24.268Z,14.51
2023-03-19T00:57:24.204Z,14.34
2023-03-19T00:58:24.159Z,14.38
2023-03-19T00:59:24.113Z,14.44
2023-03-19T01:00:24.070Z,14.40
2023-03-19T01:01:24.065Z,14.38
2023-03-19T01:02:23.989Z,14.38
2023-03-19T01:03:23.936Z,14.53
2023-03-19T01:04:23.922Z,14.41
2023-03-19T01:05:23.847Z,14.45
2023-03-19T01:06:23.806Z,14.48
2023-03-19T01:07:23.789Z,14.37
2023-03-19T01:08:23.730Z,14.25
2023-03-19T01:09:23.673Z,14.22
2023-03-19T01:10:23.625Z,14.22
2023-03-19T01:11:23.582Z,14.23
2023-03-19T01:12:23.537Z,14.25
2023-03-19T01:13:23.538Z,14.25
2023-03-19T01:14:23.442Z,14.26
2023-03-19T01:15:23.417Z,14.22
2023-03-19T01:16:23.357Z,14.30
2023-03-19T01:17:23.315Z,14.30
2023-03-19T01:18:23.273Z,14.25
2023-03-19T01:19:23.244Z,14.28
2023-03-19T01:20:23.188Z,14.23
2023-03-19T01:21:23.267Z,14.34
2023-03-19T01:22:23.095Z,14.34
2023-03-19T01:23:23.051Z,14.19
2023-03-19T01:24:23.011Z,14.20
2023-03-19T01:25:22.967Z,14.20
2023-03-19T01:26:22.918Z,14.15
2023-03-19T01:27:22.894Z,14.15
2023-03-19T01:28:22.834Z,14.16
2023-03-19T01:29:22.790Z,14.19
2023-03-19T01:30:22.738Z,14.23
2023-03-19T01:31:22.726Z,14.26
2023-03-19T01:32:22.645Z,14.18
2023-03-19T01:33:25.511Z,14.12
2023-03-19T01:34:22.561Z,14.05
2023-03-19T01:35:22.531Z,14.12
2023-03-19T01:36:22.484Z,14.08
2023-03-19T01:37:22.451Z,14.08
2023-03-19T01:38:22.503Z,14.00
2023-03-19T01:39:22.344Z,14.04
2023-03-19T01:40:22.302Z,14.03
2023-03-19T01:41:22.258Z,14.03
2023-03-19T01:42:22.211Z,13.98
2023-03-19T01:43:22.173Z,14.08
2023-03-19T01:44:22.141Z,14.08
2023-03-19T01:45:22.109Z,14.05
2023-03-19T01:46:22.143Z,13.91
2023-03-19T01:47:21.991Z,14.04
2023-03-19T01:48:21.942Z,14.04
2023-03-19T01:49:21.901Z,13.95
2023-03-19T01:50:21.873Z,14.00
2023-03-19T01:51:21.823Z,14.00
2023-03-19T01:52:21.763Z,14.08
2023-03-19T01:53:21.724Z,14.05
2023-03-19T01:54:21.678Z,14.04
2023-03-19T01:55:21.635Z,14.05
2023-03-19T01:56:21.623Z,14.12
2023-03-19T01:57:21.547Z,14.00
2023-03-19T01:58:21.544Z,14.08
2023-03-19T01:59:21.456Z,14.07
2023-03-19T02:00:21.413Z,13.97
2023-03-19T02:01:21.386Z,13.87
2023-03-19T02:02:21.399Z,13.97
2023-03-19T02:03:21.281Z,14.01
2023-03-19T02:04:21.270Z,14.01
2023-03-19T02:05:21.192Z,14.03
2023-03-19T02:06:21.150Z,13.98
2023-03-19T02:07:21.120Z,14.03
2023-03-19T02:08:21.075Z,14.00
2023-03-19T02:09:21.018Z,14.01
2023-03-19T02:10:20.998Z,14.01
2023-03-19T02:11:20.934Z,14.03
2023-03-19T02:12:20.879Z,14.01
2023-03-19T02:13:20.868Z,14.00
2023-03-19T02:14:20.914Z,14.04
2023-03-19T02:15:20.759Z,14.01
2023-03-19T02:16:20.779Z,14.03
2023-03-19T02:17:20.662Z,14.01
2023-03-19T02:18:20.648Z,14.05
2023-03-19T02:19:20.572Z,14.12
2023-03-19T02:20:20.533Z,14.00
2023-03-19T02:21:20.507Z,14.07
2023-03-19T02:22:20.441Z,13.98
2023-03-19T02:23:20.397Z,13.98
2023-03-19T02:24:20.374Z,14.04
2023-03-19T02:25:20.346Z,14.07
2023-03-19T02:26:20.264Z,14.01
2023-03-19T02:27:20.246Z,14.13
2023-03-19T02:28:20.173Z,14.11
2023-03-19T02:29:20.128Z,14.13
2023-03-19T02:30:20.086Z,14.19
2023-03-19T02:31:20.067Z,14.19
2023-03-19T02:32:20.022Z,14.23
2023-03-19T02:33:19.955Z,14.23
2023-03-19T02:34:19.912Z,14.33
2023-03-19T02:35:19.866Z,14.22
2023-03-19T02:36:19.819Z,14.23
2023-03-19T02:37:19.785Z,14.25
2023-03-19T02:38:19.768Z,14.23
2023-03-19T02:39:19.694Z,14.19
2023-03-19T02:40:19.642Z,14.03
2023-03-19T02:41:19.605Z,14.07
2023-03-19T02:42:19.562Z,14.12
2023-03-19T02:43:19.517Z,14.08
2023-03-19T02:44:19.639Z,14.12
2023-03-19T02:45:19.424Z,14.07
2023-03-19T02:46:19.450Z,14.00
2023-03-19T02:47:19.342Z,14.03
2023-03-19T02:48:19.294Z,14.00
2023-03-19T02:49:19.250Z,14.05
2023-03-19T02:50:19.218Z,14.04
2023-03-19T02:51:19.163Z,14.01
2023-03-19T02:52:19.117Z,14.03
2023-03-19T02:53:19.092Z,14.00
2023-03-19T02:54:19.036Z,14.05
2023-03-19T02:55:18.983Z,13.87
2023-03-19T02:56:18.937Z,13.87
2023-03-19T02:57:18.901Z,14.01
2023-03-19T02:58:18.852Z,13.89
2023-03-19T02:59:18.833Z,13.87
2023-03-19T03:00:18.770Z,13.91
2023-03-19T03:01:18.743Z,13.87
2023-03-19T03:02:18.703Z,13.83
2023-03-19T03:03:18.638Z,13.83
2023-03-19T03:04:18.590Z,13.79
2023-03-19T03:05:18.728Z,13.76
2023-03-19T03:06:18.502Z,13.70
2023-03-19T03:07:18.462Z,13.70
2023-03-19T03:08:18.420Z,13.71
2023-03-19T03:09:18.437Z,13.70
2023-03-19T03:10:18.328Z,13.71
2023-03-19T03:11:18.419Z,13.71
2023-03-19T03:12:18.240Z,13.62
2023-03-19T03:13:18.195Z,13.58
2023-03-19T03:14:18.170Z,13.60
2023-03-19T03:15:18.117Z,13.43
2023-03-19T03:16:18.087Z,13.43
2023-03-19T03:17:18.050Z,13.31
2023-03-19T03:18:17.981Z,13.19
2023-03-19T03:19:17.936Z,13.13
2023-03-19T03:20:17.888Z,13.05
2023-03-19T03:21:17.846Z,13.06
2023-03-19T03:22:17.807Z,12.99
2023-03-19T03:23:17.783Z,12.99
2023-03-19T03:24:17.717Z,13.06
2023-03-19T03:25:17.667Z,13.05
2023-03-19T03:26:17.623Z,13.08
2023-03-19T03:27:17.580Z,13.02
2023-03-19T03:28:17.558Z,13.06
2023-03-19T03:29:17.489Z,13.13
2023-03-19T03:30:17.475Z,13.20
2023-03-19T03:31:17.511Z,13.26
2023-03-19T03:32:17.367Z,13.21
2023-03-19T03:33:17.324Z,13.31
2023-03-19T03:34:17.271Z,13.30
2023-03-19T03:35:17.239Z,13.36
2023-03-19T03:36:17.179Z,13.28
2023-03-19T03:37:17.138Z,13.39
2023-03-19T03:38:17.101Z,13.31
2023-03-19T03:39:17.047Z,13.33
2023-03-19T03:40:17.005Z,13.31
2023-03-19T03:41:16.977Z,13.28
2023-03-19T03:42:17.096Z,13.47
2023-03-19T03:43:16.870Z,13.43
2023-03-19T03:44:16.830Z,13.46
2023-03-19T03:45:16.776Z,13.45
2023-03-19T03:46:16.784Z,13.47
2023-03-19T03:47:16.686Z,13.50
2023-03-19T03:48:16.674Z,13.54
2023-03-19T03:49:16.607Z,13.54
2023-03-19T03:50:16.556Z,13.54
2023-03-19T03:51:16.510Z,13.60
2023-03-19T03:52:16.471Z,13.67
2023-03-19T03:53:16.430Z,13.62
2023-03-19T03:54:16.392Z,13.61
2023-03-19T03:55:16.334Z,13.67
2023-03-19T03:56:16.295Z,13.73
2023-03-19T03:57:16.245Z,13.70
2023-03-19T03:58:16.212Z,13.58
2023-03-19T03:59:16.278Z,13.54
2023-03-19T04:00:16.111Z,13.55
2023-03-19T04:01:16.067Z,13.61
2023-03-19T04:02:16.092Z,13.61
2023-03-19T04:03:16.033Z,13.49
2023-03-19T04:04:15.934Z,13.60
2023-03-19T04:05:15.912Z,13.62
2023-03-19T04:06:15.844Z,13.60
2023-03-19T04:07:15.805Z,13.52
2023-03-19T04:08:15.767Z,13.42
2023-03-19T04:09:15.715Z,13.37
2023-03-19T04:10:15.683Z,13.30
2023-03-19T04:11:15.670Z,13.33
2023-03-19T04:12:15.576Z,13.33
2023-03-19T04:13:15.536Z,13.27
2023-03-19T04:14:15.495Z,13.37
2023-03-19T04:15:15.462Z,13.39
2023-03-19T04:16:15.420Z,13.31
2023-03-19T04:17:15.367Z,13.45
2023-03-19T04:18:15.310Z,13.43
2023-03-19T04:19:15.271Z,13.33
2023-03-19T04:20:15.246Z,13.33
2023-03-19T04:21:15.178Z,13.33
2023-03-19T04:22:15.146Z,13.46
2023-03-19T04:23:15.091Z,13.43
2023-03-19T04:24:15.063Z,13.47
2023-03-19T04:25:14.995Z,13.60
2023-03-19T04:26:14.959Z,13.61
2023-03-19T04:27:14.915Z,13.64
2023-03-19T04:28:14.870Z,13.68
2023-03-19T04:29:14.820Z,13.71
2023-03-19T04:30:14.805Z,13.68
2023-03-19T04:31:14.764Z,13.64
2023-03-19T04:32:14.708Z,13.67
2023-03-19T04:33:14.645Z,13.73
2023-03-19T04:34:14.621Z,13.70
2023-03-19T04:35:14.576Z,13.65
2023-03-19T04:36:14.522Z,13.70
2023-03-19T04:37:14.466Z,13.70
2023-03-19T04:38:14.455Z,13.65
2023-03-19T04:39:14.388Z,13.67
2023-03-19T04:40:14.331Z,13.61
2023-03-19T04:41:14.289Z,13.58
2023-03-19T04:42:14.265Z,13.67
2023-03-19T04:43:14.208Z,13.76
2023-03-19T04:44:14.152Z,13.73
2023-03-19T04:45:14.105Z,13.61
2023-03-19T04:46:14.148Z,13.62
2023-03-19T04:47:14.017Z,13.47
2023-03-19T04:48:14.007Z,13.50
2023-03-19T04:49:13.930Z,13.46
2023-03-19T04:50:13.893Z,13.39
2023-03-19T04:51:13.838Z,13.30
2023-03-19T04:52:13.806Z,13.24
2023-03-19T04:53:13.757Z,13.16
2023-03-19T04:54:13.738Z,13.06
2023-03-19T04:55:13.671Z,13.02
2023-03-19T04:56:13.621Z,12.88
2023-03-19T04:57:13.580Z,12.83
2023-03-19T04:58:13.541Z,12.76
2023-03-19T04:59:13.484Z,12.72
2023-03-19T05:00:13.472Z,12.78
2023-03-19T05:01:13.454Z,12.66
2023-03-19T05:02:13.351Z,12.63
2023-03-19T05:03:13.306Z,12.55
2023-03-19T05:04:13.344Z,12.48
2023-03-19T05:05:13.216Z,12.48
2023-03-19T05:06:13.210Z,12.35
2023-03-19T05:07:13.135Z,12.33
2023-03-19T05:08:13.085Z,12.26
2023-03-19T05:09:13.038Z,12.30
2023-03-19T05:10:13.003Z,12.37
2023-03-19T05:11:12.952Z,12.39
2023-03-19T05:12:12.920Z,12.35
2023-03-19T05:13:12.864Z,12.39
2023-03-19T05:14:12.820Z,12.35
2023-03-19T05:15:12.771Z,12.30
2023-03-19T05:16:12.750Z,12.33
2023-03-19T05:17:12.689Z,12.33
2023-03-19T05:18:12.654Z,12.37
2023-03-19T05:19:12.596Z,12.43
2023-03-19T05:20:12.569Z,12.36
2023-03-19T05:21:12.502Z,12.37
2023-03-19T05:22:12.464Z,12.50
2023-03-19T05:23:12.407Z,12.39
2023-03-19T05:24:12.379Z,12.48
2023-03-19T05:25:12.325Z,12.47
2023-03-19T05:26:12.293Z,12.47
2023-03-19T05:27:12.228Z,12.50
2023-03-19T05:28:12.186Z,12.45
2023-03-19T05:29:12.145Z,12.51
2023-03-19T05:30:12.128Z,12.53
2023-03-19T05:31:12.057Z,12.53
2023-03-19T05:32:12.028Z,12.47
2023-03-19T05:33:12.017Z,12.47
2023-03-19T05:34:11.916Z,12.50
2023-03-19T05:35:11.871Z,12.48
2023-03-19T05:36:11.834Z,12.47
2023-03-19T05:37:11.780Z,12.40
2023-03-19T05:38:11.753Z,12.36
2023-03-19T05:39:11.720Z,12.35
2023-03-19T05:40:11.652Z,12.30
2023-03-19T05:41:11.629Z,12.32
2023-03-19T05:42:11.561Z,12.28
2023-03-19T05:43:11.520Z,12.30
2023-03-19T05:44:11.480Z,12.29
2023-03-19T05:45:11.428Z,12.32
2023-03-19T05:46:11.443Z,12.32
2023-03-19T05:47:11.354Z,12.29
2023-03-19T05:48:11.293Z,12.32
2023-03-19T05:49:11.258Z,12.21
2023-03-19T05:50:11.204Z,12.29
2023-03-19T05:51:11.155Z,12.20
2023-03-19T05:52:11.108Z,12.15
2023-03-19T05:53:11.086Z,12.23
2023-03-19T05:54:11.029Z,12.05
2023-03-19T05:55:10.984Z,12.14
2023-03-19T05:56:10.940Z,12.15
2023-03-19T05:57:10.885Z,12.11
2023-03-19T05:58:10.841Z,12.12
2023-03-19T05:59:10.838Z,12.08
2023-03-19T06:03:48.757Z,12.11
2023-03-19T06:04:47.586Z,11.99
2023-03-19T06:05:47.731Z,11.99
2023-03-19T06:06:47.355Z,11.85
2023-03-19T06:07:47.497Z,11.85
2023-03-19T06:08:47.313Z,11.88
2023-03-19T06:09:47.218Z,11.91
2023-03-19T06:10:47.317Z,11.85
2023-03-19T06:11:47.267Z,11.96
2023-03-19T06:12:47.085Z,12.00
2023-03-19T06:13:47.293Z,12.03
2023-03-19T06:14:47.006Z,12.11
2023-03-19T06:15:46.985Z,12.10
2023-03-19T06:16:47.239Z,12.10
2023-03-19T06:17:46.960Z,12.12
2023-03-19T06:18:47.032Z,12.21
2023-03-19T06:19:46.784Z,12.29
2023-03-19T06:20:46.964Z,12.32
2023-03-19T06:21:47.043Z,12.32
2023-03-19T06:22:46.931Z,12.35
2023-03-19T06:23:46.606Z,12.36
2023-03-19T06:24:47.040Z,12.45
2023-03-19T06:25:46.606Z,12.48
2023-03-19T06:26:46.518Z,12.61
2023-03-19T06:27:46.513Z,12.66
2023-03-19T06:28:46.705Z,12.62
2023-03-19T06:29:46.378Z,12.61
2023-03-19T06:30:46.468Z,12.72
2023-03-19T06:31:46.310Z,12.81
2023-03-19T06:32:46.232Z,12.90
2023-03-19T06:33:46.185Z,12.91
2023-03-19T06:34:46.397Z,12.94
2023-03-19T06:35:46.180Z,13.08
2023-03-19T06:36:46.353Z,13.17
2023-03-19T06:37:45.968Z,13.23
2023-03-19T06:38:45.923Z,13.30
2023-03-19T06:39:45.987Z,13.46
2023-03-19T06:40:46.002Z,13.50
2023-03-19T06:41:53.650Z,13.57
2023-03-19T06:42:48.039Z,13.62
2023-03-19T06:43:45.751Z,13.67
2023-03-19T06:44:45.757Z,13.67
2023-03-19T06:45:46.977Z,13.71
2023-03-19T06:46:45.810Z,13.70
2023-03-19T06:47:45.528Z,13.75
2023-03-19T06:48:45.721Z,13.78
2023-03-19T06:49:45.437Z,13.79
2023-03-19T06:50:45.629Z,13.78
2023-03-19T06:51:45.393Z,13.79
2023-03-19T06:52:53.172Z,13.85
2023-03-19T06:53:46.509Z,13.85
2023-03-19T06:54:45.220Z,13.83
2023-03-19T06:55:45.177Z,13.79
2023-03-19T06:56:45.129Z,13.82
2023-03-19T06:57:46.204Z,13.85
2023-03-19T06:58:45.040Z,13.85
2023-03-19T06:59:45.284Z,13.82
2023-03-19T07:00:46.203Z,13.85
2023-03-19T07:01:44.985Z,13.76
2023-03-19T07:02:45.045Z,13.73
2023-03-19T07:03:45.144Z,13.76
2023-03-19T07:04:44.776Z,13.68
2023-03-19T07:05:44.916Z,13.75
2023-03-19T07:06:44.686Z,13.73
2023-03-19T07:07:44.752Z,13.68
2023-03-19T07:08:44.878Z,13.70
2023-03-19T07:09:44.562Z,13.80
2023-03-19T07:10:44.963Z,13.83
2023-03-19T07:11:44.474Z,13.87
2023-03-19T07:12:44.661Z,13.86
2023-03-19T07:13:44.383Z,13.83
2023-03-19T07:14:44.476Z,13.97
2023-03-19T07:15:44.290Z,14.12
2023-03-19T07:16:44.481Z,14.07
2023-03-19T07:17:44.220Z,14.22
2023-03-19T07:18:44.215Z,14.43
2023-03-19T07:19:44.129Z,14.49
2023-03-19T07:20:44.219Z,14.61
2023-03-19T07:21:44.050Z,14.77
2023-03-19T07:22:44.488Z,14.86
2023-03-19T07:23:43.979Z,14.87
2023-03-19T07:24:43.963Z,14.93
2023-03-19T07:25:43.862Z,15.00
2023-03-19T07:26:43.952Z,15.12
2023-03-19T07:27:43.770Z,15.18
2023-03-19T07:28:43.965Z,15.29
2023-03-19T07:29:43.815Z,15.33
2023-03-19T07:30:43.671Z,15.36
2023-03-19T07:31:43.795Z,15.35
2023-03-19T07:32:43.576Z,15.41
2023-03-19T07:33:43.791Z,15.50
2023-03-19T07:34:43.464Z,15.55
2023-03-19T07:35:43.427Z,15.51
2023-03-19T07:36:43.659Z,15.59
2023-03-19T07:37:43.556Z,15.55
2023-03-19T07:38:43.295Z,15.62
2023-03-19T07:39:43.433Z,15.78
2023-03-19T07:40:51.336Z,15.78
2023-03-19T07:41:43.160Z,15.85
2023-03-19T07:42:45.247Z,15.88
2023-03-19T07:43:43.085Z,15.92
2023-03-19T07:44:43.464Z,15.96
2023-03-19T07:45:43.070Z,15.98
2023-03-19T07:46:43.083Z,16.02
2023-03-19T07:47:42.911Z,16.02
2023-03-19T07:48:43.116Z,16.02
2023-03-19T07:49:42.875Z,15.96
2023-03-19T07:50:43.150Z,16.18
2023-03-19T07:51:42.767Z,16.10
2023-03-19T07:52:42.922Z,16.17
2023-03-19T07:53:42.643Z,16.17
2023-03-19T07:54:43.759Z,16.09
2023-03-19T07:55:42.697Z,16.22
2023-03-19T07:56:42.842Z,16.22
2023-03-19T07:57:42.499Z,16.13
2023-03-19T07:58:42.638Z,16.12
2023-03-19T07:59:42.423Z,16.24
2023-03-19T08:00:42.554Z,16.17
2023-03-19T08:01:42.337Z,16.22
2023-03-19T08:02:42.747Z,16.26
2023-03-19T08:03:42.220Z,16.34
2023-03-19T08:04:42.721Z,16.34
2023-03-19T08:05:42.169Z,16.29
2023-03-19T08:06:43.322Z,16.16
2023-03-19T08:07:42.049Z,16.24
2023-03-19T08:08:42.312Z,16.34
2023-03-19T08:09:42.099Z,16.32
2023-03-19T08:10:42.186Z,16.46
2023-03-19T08:11:41.885Z,16.49
2023-03-19T08:12:43.161Z,16.55
2023-03-19T08:13:41.795Z,16.64
2023-03-19T08:14:42.052Z,16.57
2023-03-19T08:15:41.712Z,16.69
2023-03-19T08:16:41.713Z,16.76
2023-03-19T08:17:41.633Z,16.65
2023-03-19T08:18:41.768Z,16.77
2023-03-19T08:19:41.571Z,16.74
2023-03-19T08:20:41.776Z,16.83
2023-03-19T08:21:41.469Z,16.80
2023-03-19T08:22:41.421Z,16.80
2023-03-19T08:23:41.402Z,16.74
2023-03-19T08:24:41.522Z,16.62
2023-03-19T08:25:41.298Z,16.58
2023-03-19T08:26:41.509Z,16.58
2023-03-19T08:27:41.202Z,16.68
2023-03-19T08:28:41.215Z,16.64
2023-03-19T08:29:41.112Z,16.66
2023-03-19T08:30:41.293Z,16.74
2023-03-19T08:31:41.031Z,16.84
2023-03-19T08:32:41.296Z,16.74
2023-03-19T08:33:40.949Z,16.69
2023-03-19T08:34:41.006Z,16.76
2023-03-19T08:35:40.886Z,16.91
2023-03-19T08:36:40.981Z,17.01
2023-03-19T08:37:40.786Z,17.14
2023-03-19T08:38:40.883Z,17.23
2023-03-19T08:39:40.717Z,17.30
2023-03-19T08:40:40.667Z,17.32
2023-03-19T08:41:40.608Z,17.42
2023-03-19T08:42:42.037Z,17.42
2023-03-19T08:43:40.522Z,17.32
2023-03-19T08:44:40.774Z,17.34
2023-03-19T08:45:40.628Z,17.32
2023-03-19T08:46:40.541Z,17.24
2023-03-19T08:47:40.391Z,17.14
2023-03-19T08:48:41.542Z,17.04
2023-03-19T08:49:40.272Z,16.94
2023-03-19T08:50:40.353Z,16.99
2023-03-19T08:51:40.192Z,16.99
2023-03-19T08:52:40.162Z,16.94
2023-03-19T08:53:40.231Z,17.01
2023-03-19T08:54:40.221Z,17.05
2023-03-19T08:55:40.023Z,17.09
2023-03-19T08:56:40.305Z,17.20
2023-03-19T08:57:39.939Z,17.20
2023-03-19T08:58:39.895Z,17.27
2023-03-19T08:59:39.906Z,17.42
2023-03-19T09:00:39.914Z,17.54
2023-03-19T09:01:39.796Z,17.73
2023-03-19T09:02:40.049Z,17.72
2023-03-19T09:03:39.715Z,17.95
2023-03-19T09:04:39.663Z,18.05
2023-03-19T09:05:39.794Z,18.24
2023-03-19T09:06:39.791Z,18.39
2023-03-19T09:07:39.526Z,18.48
2023-03-19T09:08:39.599Z,18.68
2023-03-19T09:09:39.440Z,18.85
2023-03-19T09:10:39.402Z,19.01
2023-03-19T09:11:39.407Z,19.19
2023-03-19T09:12:39.502Z,19.34
2023-03-19T09:13:39.303Z,19.48
2023-03-19T09:14:39.291Z,19.70
2023-03-19T09:15:39.297Z,19.78
2023-03-19T09:16:39.152Z,19.92
2023-03-19T09:17:39.241Z,20.07
2023-03-19T09:18:47.729Z,20.22
2023-03-19T09:19:47.847Z,20.30
2023-03-19T09:20:38.990Z,20.32
2023-03-19T09:21:46.812Z,20.36
2023-03-19T09:22:38.938Z,20.37
2023-03-19T09:23:38.872Z,20.46
2023-03-19T09:24:40.579Z,20.44
2023-03-19T09:25:38.798Z,20.59
2023-03-19T09:26:39.003Z,20.75
2023-03-19T09:27:46.844Z,20.85
2023-03-19T09:28:38.670Z,20.89
2023-03-19T09:29:46.909Z,21.01
2023-03-19T09:30:47.440Z,21.01
2023-03-19T09:31:47.056Z,21.07
2023-03-19T09:32:47.087Z,21.01
2023-03-19T09:33:38.625Z,21.00
2023-03-19T09:34:39.638Z,20.88
2023-03-19T09:35:38.439Z,20.89
2023-03-19T09:36:39.474Z,20.88
2023-03-19T09:37:38.310Z,20.89
2023-03-19T09:38:38.657Z,20.89
2023-03-19T09:39:38.229Z,21.08
2023-03-19T09:40:38.202Z,21.28
2023-03-19T09:41:38.379Z,21.63
2023-03-19T09:42:38.169Z,22.07
2023-03-19T09:43:38.180Z,22.71
2023-03-19T09:44:38.065Z,23.20
2023-03-19T09:45:38.190Z,23.70
2023-03-19T09:46:38.128Z,24.13
2023-03-19T09:47:38.010Z,24.69
2023-03-19T09:48:39.098Z,25.40
2023-03-19T09:49:38.023Z,26.01
2023-03-19T09:50:37.824Z,26.63
2023-03-19T09:51:38.998Z,26.89
2023-03-19T09:52:37.735Z,27.29
2023-03-19T09:53:37.736Z,27.67
2023-03-19T09:54:37.671Z,27.91
2023-03-19T09:55:39.014Z,28.15
2023-03-19T09:56:37.596Z,27.83
2023-03-19T09:57:37.798Z,27.37
2023-03-19T09:58:37.527Z,27.43
2023-03-19T09:59:37.589Z,27.38
2023-03-19T10:00:37.509Z,27.91
2023-03-19T10:01:37.625Z,28.15
2023-03-19T10:02:37.388Z,28.23
2023-03-19T10:03:37.438Z,28.35
2023-03-19T10:04:37.422Z,28.38
2023-03-19T10:05:37.444Z,28.22
2023-03-19T10:06:37.444Z,27.93
2023-03-19T10:07:37.504Z,27.57
2023-03-19T10:08:37.249Z,27.38
2023-03-19T10:09:37.162Z,26.66
2023-03-19T10:10:37.114Z,25.98
2023-03-19T10:11:38.269Z,25.44
2023-03-19T10:12:37.045Z,25.12
2023-03-19T10:13:37.080Z,24.44
2023-03-19T10:14:36.980Z,24.11
2023-03-19T10:15:37.380Z,23.95
2023-03-19T10:16:36.937Z,23.88
2023-03-19T10:17:37.110Z,23.70
2023-03-19T10:18:36.829Z,23.36
2023-03-19T10:19:39.944Z,23.28
2023-03-19T10:20:36.759Z,23.07
2023-03-19T10:21:36.857Z,23.07
2023-03-19T10:22:36.864Z,22.88
2023-03-19T10:23:36.647Z,22.40
2023-03-19T10:24:57.741Z,22.30
2023-03-19T10:25:37.632Z,22.36
2023-03-19T10:26:36.771Z,22.46
2023-03-19T10:27:36.512Z,22.15
2023-03-19T10:28:36.463Z,22.25
2023-03-19T10:29:36.575Z,22.47
2023-03-19T10:30:36.668Z,22.56
2023-03-19T10:31:36.624Z,22.65
2023-03-19T10:32:36.400Z,22.63
2023-03-19T10:33:36.477Z,22.78
2023-03-19T10:34:36.245Z,22.86
2023-03-19T10:35:36.543Z,22.95
2023-03-19T10:36:36.186Z,22.98
2023-03-19T10:37:36.516Z,23.11
2023-03-19T10:38:36.105Z,23.08
2023-03-19T10:39:36.174Z,22.96
2023-03-19T10:40:36.022Z,23.16
2023-03-19T10:41:36.213Z,22.98
2023-03-19T10:42:35.996Z,22.74
2023-03-19T10:43:35.975Z,22.61
2023-03-19T10:44:35.893Z,22.67
2023-03-19T10:45:36.899Z,22.83
2023-03-19T10:46:35.808Z,23.23
2023-03-19T10:47:35.915Z,23.49
2023-03-19T10:48:35.963Z,23.67
2023-03-19T10:49:35.913Z,24.10
2023-03-19T10:50:35.679Z,24.21
2023-03-19T10:51:35.633Z,24.55
2023-03-19T10:52:35.783Z,24.58
2023-03-19T10:53:35.647Z,24.69
2023-03-19T10:54:35.500Z,24.46
2023-03-19T10:55:35.960Z,24.34
2023-03-19T10:56:35.425Z,23.86
2023-03-19T10:57:35.424Z,23.63
2023-03-19T10:58:35.365Z,23.49
2023-03-19T10:59:36.421Z,23.44
2023-03-19T11:00:35.365Z,23.28
2023-03-19T11:01:36.728Z,22.93
2023-03-19T11:02:35.208Z,22.95
2023-03-19T11:05:07.256Z,22.15
2023-03-19T11:06:06.917Z,21.81
2023-03-19T11:07:07.061Z,21.66
2023-03-19T11:08:06.932Z,21.74
2023-03-19T11:09:06.868Z,21.66
2023-03-19T11:10:06.725Z,21.54
2023-03-19T11:11:06.791Z,21.33
2023-03-19T11:12:06.656Z,21.28
2023-03-19T11:13:06.901Z,21.22
2023-03-19T11:14:06.594Z,21.19
2023-03-19T11:15:07.740Z,21.20
2023-03-19T11:16:06.489Z,21.19
2023-03-19T11:17:06.521Z,21.04
2023-03-19T11:18:06.417Z,20.98
2023-03-19T11:19:06.698Z,20.77
2023-03-19T11:20:06.331Z,20.66
2023-03-19T11:21:06.571Z,20.58
2023-03-19T11:22:06.256Z,20.39
2023-03-19T11:23:06.359Z,20.27
2023-03-19T11:24:06.194Z,20.12
2023-03-19T11:25:06.446Z,20.03
2023-03-19T11:26:06.130Z,19.96
2023-03-19T11:27:06.240Z,19.93
2023-03-19T11:28:06.010Z,19.90
2023-03-19T11:29:06.051Z,19.75
2023-03-19T11:30:05.933Z,19.72
2023-03-19T11:31:05.964Z,19.60
2023-03-19T11:32:20.296Z,19.56
2023-03-19T11:33:05.897Z,19.59
2023-03-19T11:34:05.913Z,19.38
2023-03-19T11:35:05.803Z,19.24
2023-03-19T11:36:05.742Z,19.22
2023-03-19T11:37:05.750Z,19.16
2023-03-19T11:38:05.632Z,19.15
2023-03-19T11:39:05.925Z,19.05
2023-03-19T11:40:05.780Z,18.98
2023-03-19T11:41:05.565Z,19.12
2023-03-19T11:42:05.539Z,19.17
2023-03-19T11:43:05.451Z,19.19
2023-03-19T11:44:05.558Z,19.16
2023-03-19T11:45:05.436Z,19.15
2023-03-19T11:46:05.549Z,19.19
2023-03-19T11:47:12.232Z,19.16
2023-03-19T11:48:05.234Z,19.04
2023-03-19T11:49:05.348Z,18.98
2023-03-19T11:50:05.155Z,19.09
2023-03-19T11:51:05.313Z,19.09
2023-03-19T11:52:12.891Z,19.17
2023-03-19T11:53:12.942Z,19.19
2023-03-19T11:54:12.988Z,19.29
2023-03-19T11:55:13.015Z,19.17
2023-03-19T11:57:47.121Z,19.24
2023-03-19T11:58:51.383Z,19.34
2023-03-19T12:01:30.615Z,19.49
2023-03-19T12:02:22.651Z,19.52
2023-03-19T12:03:30.176Z,19.38
2023-03-19T12:04:22.340Z,19.32
2023-03-19T12:05:30.689Z,19.15
2023-03-19T12:06:30.242Z,19.15
2023-03-19T12:07:22.218Z,19.12
2023-03-19T12:08:31.770Z,19.05
2023-03-19T12:09:22.122Z,18.98
2023-03-19T12:10:22.080Z,18.97
2023-03-19T12:11:22.302Z,18.81
2023-03-19T12:12:22.013Z,18.91
2023-03-19T12:13:22.191Z,18.78
2023-03-19T12:14:22.000Z,18.64
2023-03-19T12:15:21.909Z,18.63
2023-03-19T12:16:22.130Z,18.67
2023-03-19T12:17:21.822Z,18.67
2023-03-19T12:18:21.766Z,18.73
2023-03-19T12:19:21.934Z,18.58
2023-03-19T12:20:21.894Z,18.49
2023-03-19T12:21:21.637Z,18.55
2023-03-19T12:22:21.693Z,18.57
2023-03-19T12:23:21.545Z,18.52
2023-03-19T12:24:21.709Z,18.78
2023-03-19T12:25:21.460Z,18.78
2023-03-19T12:26:21.523Z,18.86
2023-03-19T12:27:21.397Z,19.01
2023-03-19T12:28:21.340Z,19.08
2023-03-19T12:29:21.340Z,19.19
2023-03-19T12:30:21.391Z,19.56
2023-03-19T12:31:21.445Z,19.72
2023-03-19T12:32:21.180Z,20.04
2023-03-19T12:33:21.325Z,20.34
2023-03-19T12:34:21.282Z,20.50
2023-03-19T12:35:21.063Z,20.73
2023-03-19T12:36:21.106Z,21.03
2023-03-19T12:37:21.342Z,21.30
2023-03-19T12:38:21.174Z,21.74
2023-03-19T12:39:20.899Z,21.80
2023-03-19T12:40:20.856Z,21.77
2023-03-19T12:41:20.959Z,21.72
2023-03-19T12:42:20.793Z,21.56
2023-03-19T12:43:20.813Z,21.32
2023-03-19T12:44:20.706Z,21.33
2023-03-19T12:45:20.905Z,21.43
2023-03-19T12:46:20.891Z,21.48
2023-03-19T12:47:20.607Z,21.40
2023-03-19T12:48:20.643Z,21.47
2023-03-19T12:49:20.770Z,21.72
2023-03-19T12:50:20.722Z,21.92
2023-03-19T12:51:20.463Z,22.07
2023-03-19T12:52:20.396Z,22.10
2023-03-19T12:53:20.362Z,22.08
2023-03-19T12:54:20.549Z,21.92
2023-03-19T12:55:20.300Z,21.81
2023-03-19T12:56:21.402Z,21.62
2023-03-19T12:57:20.228Z,21.20
2023-03-19T12:58:20.161Z,21.14
2023-03-19T12:59:20.163Z,20.86
2023-03-19T13:00:20.320Z,20.77